Main page
METAR-TAF:

METAR-TAF

Airports :

Jerez Airport

Jerez de la Frontera, Spain

latitude: 36-45N, longitude: 006-04W, elevation: 27 m

Current weather observation

The report was made 21 minutes ago, at 04:00 UTC
Calm wind
Temperature 13°C
Humidity 100%
Pressure 1016 hPa
Visibility 10 km or more
no clouds below 1500 m and no cumulonimbus

METAR: LEJR 170400Z 00000KT CAVOK 13/13 Q1016

Time: 06:21 (04:21 UTC)

Forecast

The report was made 5 hours and 21 minutes ago, at 23:00 UTC
Forecast valid from 17 at 00 UTC to 17 at 24 UTC
Wind 5 kt from the Northeast
Visibility 10 km or more
Few clouds at a height of 3000 ft
Probability 40% :
Temporary
from 17 at 05 UTC to 17 at 09 UTC
Visibility: 4000 m
Broken clouds at a height of 500 ft
mist
Probability 30% :
Temporary
from 17 at 06 UTC to 17 at 08 UTC
Visibility: 0500 m
at a height of 100 ft
fog

TAF: LEJR 162300Z 1700/1724 04005KT 9999 FEW030 TX26/1714Z TN11/1706Z PROB40 TEMPO 1705/1709 4000 BR BKN005 PROB30 TEMPO 1706/1708 0500 FG VV001

Weather observations and forecasts of more than 4000 airports (METAR and TAF reports).

The available stations are represented by yellow and red dots on the map.

Hover mouse over dot to see the name of the station.

Then click to see weather observations and forecasts.

To change the map : click on the green buttons with a black cross to zoom in, on the green button with a dash to zoom out, or on the green arrows for adjacent maps.


METAR-TAF: